VLO6023 SBPL-SBPB
Flight info
| Callsign | VLO6023 |
|---|---|
| Flight time | 1h 1m |
| Altitude | FL310 |
| Route | SIGEB KABOP SURPA POVPO VURUP |
| Aircraft | B703/H-VRDW/C |
Departure
| Time | 2026-05-07 03:01 |
|---|---|
| Airport | Senador Nilo Coelho Airport (SBPL) |
Arrival
| Time | 2026-05-07 04:02 |
|---|---|
| Airport | Parnaíba - Prefeito Doutor João Silva Filho International Airport (SBPB) |
| Time | Latitude | Longitude | Altitude | Speed | Heading |
|---|---|---|---|---|---|
| 2026-05-07 02:52 | -9.36578 | -40.56599 | 1271 ft | 0 kts | 197° |
| 2026-05-07 02:54 | -9.36547 | -40.56589 | 1271 ft | 8 kts | 197° |
| 2026-05-07 02:54 | -9.36488 | -40.56583 | 1271 ft | 8 kts | 189° |
| 2026-05-07 02:54 | -9.36440 | -40.56572 | 1271 ft | 6 kts | 196° |
| 2026-05-07 02:55 | -9.36398 | -40.56568 | 1272 ft | 6 kts | 163° |
| 2026-05-07 02:55 | -9.36363 | -40.56589 | 1272 ft | 6 kts | 109° |
| 2026-05-07 02:55 | -9.36347 | -40.56634 | 1271 ft | 7 kts | 109° |
| 2026-05-07 02:55 | -9.36326 | -40.56695 | 1271 ft | 11 kts | 109° |
| 2026-05-07 02:56 | -9.36299 | -40.56770 | 1271 ft | 11 kts | 109° |
| 2026-05-07 02:56 | -9.36275 | -40.56839 | 1270 ft | 10 kts | 109° |
| 2026-05-07 02:56 | -9.36272 | -40.56848 | 1270 ft | 10 kts | 109° |
| 2026-05-07 02:56 | -9.36266 | -40.56865 | 1270 ft | 10 kts | 109° |
| 2026-05-07 02:57 | -9.36244 | -40.56928 | 1270 ft | 9 kts | 109° |
| 2026-05-07 02:57 | -9.36221 | -40.56994 | 1270 ft | 13 kts | 109° |
| 2026-05-07 02:57 | -9.36184 | -40.57099 | 1269 ft | 17 kts | 109° |
| 2026-05-07 02:57 | -9.36146 | -40.57206 | 1269 ft | 15 kts | 110° |
| 2026-05-07 02:58 | -9.36112 | -40.57301 | 1268 ft | 14 kts | 110° |
| 2026-05-07 02:58 | -9.36080 | -40.57398 | 1267 ft | 15 kts | 108° |
| 2026-05-07 02:58 | -9.36049 | -40.57498 | 1267 ft | 15 kts | 108° |
| 2026-05-07 02:58 | -9.36016 | -40.57597 | 1266 ft | 15 kts | 108° |
| 2026-05-07 02:59 | -9.35983 | -40.57695 | 1266 ft | 15 kts | 109° |
| 2026-05-07 02:59 | -9.35950 | -40.57793 | 1265 ft | 15 kts | 109° |
| 2026-05-07 02:59 | -9.35916 | -40.57893 | 1265 ft | 15 kts | 109° |
| 2026-05-07 02:59 | -9.35884 | -40.57986 | 1264 ft | 10 kts | 109° |
| 2026-05-07 03:00 | -9.35886 | -40.57977 | 1265 ft | 26 kts | 106° |
| 2026-05-07 03:00 | -9.36038 | -40.57536 | 1267 ft | 107 kts | 114° |
| 2026-05-07 03:00 | -9.36333 | -40.56580 | 1305 ft | 175 kts | 107° |
| 2026-05-07 03:00 | -9.36524 | -40.55321 | 1751 ft | 186 kts | 81° |
| 2026-05-07 03:01 | -9.35907 | -40.54184 | 2250 ft | 191 kts | 42° |
| 2026-05-07 03:01 | -9.34719 | -40.53682 | 3098 ft | 172 kts | 3° |
| 2026-05-07 03:01 | -9.33850 | -40.53985 | 4556 ft | 102 kts | 313° |
| 2026-05-07 03:01 | -9.33321 | -40.54626 | 4510 ft | 155 kts | 315° |
| 2026-05-07 03:02 | -9.32254 | -40.55078 | 4731 ft | 176 kts | 6° |
| 2026-05-07 03:02 | -9.31175 | -40.54988 | 5861 ft | 107 kts | 0° |
| 2026-05-07 03:02 | -9.30434 | -40.55047 | 5237 ft | 144 kts | 357° |
| 2026-05-07 03:02 | -9.29115 | -40.54838 | 3954 ft | 216 kts | 15° |
| 2026-05-07 03:03 | -9.27655 | -40.54465 | 3764 ft | 203 kts | 16° |
| 2026-05-07 03:03 | -9.26279 | -40.54113 | 4313 ft | 214 kts | 16° |
| 2026-05-07 03:03 | -9.24858 | -40.53748 | 5616 ft | 204 kts | 16° |
| 2026-05-07 03:03 | -9.23535 | -40.53410 | 7067 ft | 186 kts | 16° |
| 2026-05-07 03:04 | -9.22363 | -40.53112 | 8482 ft | 158 kts | 16° |
| 2026-05-07 03:04 | -9.21413 | -40.52871 | 9662 ft | 129 kts | 17° |
| 2026-05-07 03:04 | -9.20490 | -40.52631 | 10063 ft | 153 kts | 17° |
| 2026-05-07 03:04 | -9.19287 | -40.52317 | 10170 ft | 201 kts | 16° |
| 2026-05-07 03:05 | -9.17763 | -40.51921 | 10233 ft | 251 kts | 15° |
| 2026-05-07 03:05 | -9.15911 | -40.51442 | 10272 ft | 298 kts | 15° |
| 2026-05-07 03:05 | -9.13744 | -40.50883 | 10299 ft | 343 kts | 15° |
| 2026-05-07 03:05 | -9.11302 | -40.50255 | 10594 ft | 377 kts | 15° |
| 2026-05-07 03:06 | -9.08660 | -40.49577 | 11025 ft | 406 kts | 15° |
| 2026-05-07 03:06 | -9.05818 | -40.48847 | 11432 ft | 434 kts | 15° |
| 2026-05-07 03:06 | -9.02776 | -40.48066 | 11785 ft | 462 kts | 15° |
| 2026-05-07 03:06 | -8.99568 | -40.47243 | 12051 ft | 490 kts | 15° |
| 2026-05-07 03:07 | -8.96171 | -40.46372 | 12214 ft | 516 kts | 15° |
| 2026-05-07 03:07 | -8.92602 | -40.45458 | 12467 ft | 538 kts | 15° |
| 2026-05-07 03:07 | -8.88972 | -40.44529 | 13691 ft | 535 kts | 15° |
| 2026-05-07 03:07 | -8.85395 | -40.43614 | 15333 ft | 527 kts | 15° |
| 2026-05-07 03:08 | -8.81851 | -40.42709 | 16803 ft | 523 kts | 15° |
| 2026-05-07 03:08 | -8.78300 | -40.41802 | 18128 ft | 522 kts | 15° |
| 2026-05-07 03:08 | -8.74784 | -40.40903 | 19387 ft | 520 kts | 15° |
| 2026-05-07 03:08 | -8.71292 | -40.40011 | 20577 ft | 517 kts | 15° |
| 2026-05-07 03:09 | -8.67802 | -40.39120 | 21676 ft | 515 kts | 15° |
| 2026-05-07 03:09 | -8.64332 | -40.38233 | 22677 ft | 514 kts | 15° |
| 2026-05-07 03:09 | -8.60874 | -40.37350 | 23594 ft | 512 kts | 15° |
| 2026-05-07 03:09 | -8.57423 | -40.36469 | 24432 ft | 510 kts | 15° |
| 2026-05-07 03:10 | -8.53959 | -40.35584 | 25201 ft | 509 kts | 15° |
| 2026-05-07 03:10 | -8.50529 | -40.34708 | 25894 ft | 508 kts | 15° |
| 2026-05-07 03:10 | -8.47109 | -40.33835 | 26524 ft | 507 kts | 15° |
| 2026-05-07 03:10 | -8.43691 | -40.32962 | 27098 ft | 506 kts | 15° |
| 2026-05-07 03:11 | -8.40284 | -40.32092 | 27618 ft | 505 kts | 15° |
| 2026-05-07 03:11 | -8.36883 | -40.31224 | 28091 ft | 504 kts | 15° |
| 2026-05-07 03:11 | -8.33487 | -40.30357 | 28519 ft | 503 kts | 15° |
| 2026-05-07 03:11 | -8.30073 | -40.29486 | 28910 ft | 502 kts | 15° |
| 2026-05-07 03:12 | -8.26690 | -40.28622 | 29262 ft | 501 kts | 15° |
| 2026-05-07 03:12 | -8.23307 | -40.27759 | 29581 ft | 501 kts | 15° |
| 2026-05-07 03:12 | -8.19931 | -40.26897 | 29869 ft | 500 kts | 15° |
| 2026-05-07 03:12 | -8.16563 | -40.26038 | 30131 ft | 500 kts | 15° |
| 2026-05-07 03:13 | -8.13191 | -40.25178 | 30378 ft | 499 kts | 15° |
| 2026-05-07 03:13 | -8.09827 | -40.24319 | 30627 ft | 499 kts | 15° |
| 2026-05-07 03:13 | -8.06442 | -40.23456 | 30877 ft | 498 kts | 15° |
| 2026-05-07 03:13 | -8.03082 | -40.22599 | 31125 ft | 498 kts | 15° |
| 2026-05-07 03:14 | -7.99722 | -40.21742 | 31371 ft | 497 kts | 15° |
| 2026-05-07 03:14 | -7.96372 | -40.20887 | 31616 ft | 497 kts | 15° |
| 2026-05-07 03:14 | -7.89681 | -40.19181 | 32102 ft | 496 kts | 15° |
| 2026-05-07 03:15 | -7.86335 | -40.18328 | 32343 ft | 495 kts | 15° |
| 2026-05-07 03:15 | -7.82962 | -40.17467 | 32482 ft | 497 kts | 15° |
| 2026-05-07 03:15 | -7.79602 | -40.16610 | 32502 ft | 501 kts | 15° |
| 2026-05-07 03:16 | -7.72785 | -40.14871 | 32503 ft | 508 kts | 15° |
| 2026-05-07 03:16 | -7.65898 | -40.13113 | 32502 ft | 513 kts | 15° |
| 2026-05-07 03:17 | -7.58923 | -40.11336 | 32501 ft | 517 kts | 14° |
| 2026-05-07 03:17 | -7.51757 | -40.10609 | 32503 ft | 520 kts | 359° |
| 2026-05-07 03:18 | -7.44508 | -40.10971 | 32502 ft | 523 kts | 357° |
| 2026-05-07 03:18 | -7.37237 | -40.11438 | 32501 ft | 524 kts | 357° |
| 2026-05-07 03:19 | -7.29922 | -40.11913 | 32501 ft | 525 kts | 357° |
| 2026-05-07 03:19 | -7.22618 | -40.12387 | 32501 ft | 526 kts | 357° |
| 2026-05-07 03:20 | -7.15307 | -40.12862 | 32501 ft | 526 kts | 357° |
| 2026-05-07 03:20 | -7.07968 | -40.13337 | 32501 ft | 527 kts | 357° |
| 2026-05-07 03:21 | -7.00647 | -40.13810 | 32501 ft | 527 kts | 357° |
| 2026-05-07 03:21 | -6.93325 | -40.14282 | 32501 ft | 527 kts | 357° |
| 2026-05-07 03:22 | -6.86003 | -40.14752 | 32501 ft | 527 kts | 357° |
| 2026-05-07 03:22 | -6.78650 | -40.15273 | 32501 ft | 528 kts | 356° |
| 2026-05-07 03:23 | -6.71330 | -40.15878 | 32501 ft | 528 kts | 355° |
| 2026-05-07 03:23 | -6.64014 | -40.16488 | 32501 ft | 528 kts | 355° |
| 2026-05-07 03:24 | -6.56672 | -40.17101 | 32501 ft | 528 kts | 355° |
| 2026-05-07 03:24 | -6.49350 | -40.17711 | 32501 ft | 528 kts | 355° |
| 2026-05-07 03:25 | -6.42032 | -40.18321 | 32501 ft | 528 kts | 356° |
| 2026-05-07 03:25 | -6.34711 | -40.18930 | 32501 ft | 528 kts | 356° |
| 2026-05-07 03:26 | -6.27361 | -40.19540 | 32501 ft | 528 kts | 356° |
| 2026-05-07 03:26 | -6.20034 | -40.20148 | 32501 ft | 528 kts | 356° |
| 2026-05-07 03:27 | -6.12710 | -40.20754 | 32501 ft | 528 kts | 356° |
| 2026-05-07 03:27 | -6.05382 | -40.21528 | 32500 ft | 528 kts | 349° |
| 2026-05-07 03:28 | -5.98398 | -40.23765 | 32501 ft | 529 kts | 335° |
| 2026-05-07 03:28 | -5.91974 | -40.27368 | 32502 ft | 529 kts | 329° |
| 2026-05-07 03:29 | -5.85700 | -40.31219 | 32501 ft | 529 kts | 328° |
| 2026-05-07 03:29 | -5.79404 | -40.35100 | 32501 ft | 530 kts | 328° |
| 2026-05-07 03:30 | -5.73131 | -40.38967 | 32501 ft | 530 kts | 328° |
| 2026-05-07 03:30 | -5.66855 | -40.42835 | 32501 ft | 530 kts | 328° |
| 2026-05-07 03:31 | -5.60558 | -40.46715 | 32501 ft | 530 kts | 328° |
| 2026-05-07 03:31 | -5.54279 | -40.50583 | 32501 ft | 530 kts | 328° |
| 2026-05-07 03:32 | -5.48007 | -40.54446 | 32501 ft | 530 kts | 328° |
| 2026-05-07 03:32 | -5.41730 | -40.58310 | 32501 ft | 530 kts | 328° |
| 2026-05-07 03:33 | -5.35428 | -40.62189 | 32501 ft | 530 kts | 328° |
| 2026-05-07 03:33 | -5.29153 | -40.66051 | 32501 ft | 530 kts | 328° |
| 2026-05-07 03:34 | -5.22873 | -40.69915 | 32501 ft | 530 kts | 328° |
| 2026-05-07 03:34 | -5.16570 | -40.73792 | 32501 ft | 530 kts | 328° |
| 2026-05-07 03:35 | -5.10292 | -40.77652 | 32501 ft | 530 kts | 328° |
| 2026-05-07 03:35 | -5.04013 | -40.81512 | 32501 ft | 530 kts | 328° |
| 2026-05-07 03:36 | -4.97727 | -40.85375 | 32501 ft | 530 kts | 328° |
| 2026-05-07 03:36 | -4.91422 | -40.89250 | 32501 ft | 530 kts | 328° |
| 2026-05-07 03:37 | -4.85143 | -40.93107 | 32501 ft | 530 kts | 328° |
| 2026-05-07 03:37 | -4.78857 | -40.96968 | 32501 ft | 530 kts | 328° |
| 2026-05-07 03:38 | -4.72558 | -41.00836 | 32501 ft | 530 kts | 328° |
| 2026-05-07 03:38 | -4.66271 | -41.04689 | 32500 ft | 530 kts | 329° |
| 2026-05-07 03:39 | -4.59542 | -41.07637 | 32501 ft | 529 kts | 343° |
| 2026-05-07 03:39 | -4.52315 | -41.08915 | 32503 ft | 528 kts | 356° |
| 2026-05-07 03:40 | -4.44958 | -41.09384 | 32501 ft | 528 kts | 357° |
| 2026-05-07 03:40 | -4.37624 | -41.09785 | 32501 ft | 528 kts | 357° |
| 2026-05-07 03:41 | -4.30281 | -41.10182 | 32501 ft | 524 kts | 357° |
| 2026-05-07 03:41 | -4.26731 | -41.10374 | 32493 ft | 500 kts | 357° |
| 2026-05-07 03:41 | -4.23314 | -41.10560 | 32491 ft | 477 kts | 357° |
| 2026-05-07 03:42 | -4.16749 | -41.10914 | 31918 ft | 473 kts | 357° |
| 2026-05-07 03:42 | -4.13487 | -41.11090 | 31296 ft | 466 kts | 357° |
| 2026-05-07 03:42 | -4.10269 | -41.11263 | 30673 ft | 460 kts | 358° |
| 2026-05-07 03:42 | -4.07095 | -41.11434 | 30050 ft | 455 kts | 358° |
| 2026-05-07 03:43 | -4.03939 | -41.11604 | 29425 ft | 451 kts | 358° |
| 2026-05-07 03:43 | -4.00801 | -41.11772 | 28799 ft | 447 kts | 358° |
| 2026-05-07 03:43 | -3.97706 | -41.11938 | 28176 ft | 443 kts | 358° |
| 2026-05-07 03:43 | -3.94638 | -41.12103 | 27553 ft | 439 kts | 358° |
| 2026-05-07 03:44 | -3.91603 | -41.12265 | 26930 ft | 435 kts | 358° |
| 2026-05-07 03:44 | -3.88598 | -41.12426 | 26308 ft | 431 kts | 358° |
| 2026-05-07 03:44 | -3.85617 | -41.12586 | 25685 ft | 427 kts | 358° |
| 2026-05-07 03:44 | -3.82659 | -41.12744 | 25062 ft | 423 kts | 358° |
| 2026-05-07 03:45 | -3.79729 | -41.12900 | 24439 ft | 419 kts | 358° |
| 2026-05-07 03:45 | -3.76805 | -41.13056 | 23811 ft | 416 kts | 358° |
| 2026-05-07 03:45 | -3.73929 | -41.13243 | 23183 ft | 412 kts | 353° |
| 2026-05-07 03:45 | -3.71182 | -41.14006 | 22561 ft | 410 kts | 338° |
| 2026-05-07 03:46 | -3.68605 | -41.15200 | 21941 ft | 406 kts | 334° |
| 2026-05-07 03:46 | -3.66089 | -41.16462 | 21318 ft | 403 kts | 333° |
| 2026-05-07 03:46 | -3.63604 | -41.17724 | 20695 ft | 399 kts | 333° |
| 2026-05-07 03:46 | -3.61138 | -41.18979 | 20072 ft | 396 kts | 333° |
| 2026-05-07 03:47 | -3.58695 | -41.20222 | 19449 ft | 392 kts | 333° |
| 2026-05-07 03:47 | -3.56259 | -41.21462 | 18822 ft | 389 kts | 333° |
| 2026-05-07 03:47 | -3.53859 | -41.22683 | 18199 ft | 385 kts | 333° |
| 2026-05-07 03:47 | -3.51479 | -41.23894 | 17576 ft | 382 kts | 333° |
| 2026-05-07 03:48 | -3.49120 | -41.25094 | 16953 ft | 379 kts | 333° |
| 2026-05-07 03:48 | -3.46782 | -41.26284 | 16330 ft | 375 kts | 333° |
| 2026-05-07 03:48 | -3.44465 | -41.27462 | 15707 ft | 372 kts | 333° |
| 2026-05-07 03:48 | -3.42165 | -41.28633 | 15083 ft | 369 kts | 333° |
| 2026-05-07 03:49 | -3.39871 | -41.29800 | 14456 ft | 366 kts | 333° |
| 2026-05-07 03:49 | -3.37612 | -41.30949 | 13833 ft | 363 kts | 333° |
| 2026-05-07 03:49 | -3.35373 | -41.32088 | 13210 ft | 359 kts | 333° |
| 2026-05-07 03:49 | -3.33172 | -41.33207 | 12845 ft | 346 kts | 333° |
| 2026-05-07 03:50 | -3.31089 | -41.34268 | 12796 ft | 325 kts | 333° |
| 2026-05-07 03:50 | -3.29126 | -41.35266 | 12702 ft | 308 kts | 333° |
| 2026-05-07 03:50 | -3.27238 | -41.36227 | 12332 ft | 302 kts | 333° |
| 2026-05-07 03:50 | -3.25359 | -41.37183 | 11856 ft | 300 kts | 333° |
| 2026-05-07 03:51 | -3.23505 | -41.38125 | 11372 ft | 298 kts | 333° |
| 2026-05-07 03:51 | -3.21662 | -41.39062 | 10886 ft | 296 kts | 333° |
| 2026-05-07 03:51 | -3.19829 | -41.39994 | 10398 ft | 294 kts | 333° |
| 2026-05-07 03:51 | -3.18012 | -41.40918 | 9909 ft | 292 kts | 333° |
| 2026-05-07 03:52 | -3.16208 | -41.41835 | 9418 ft | 290 kts | 333° |
| 2026-05-07 03:52 | -3.14415 | -41.42746 | 8924 ft | 288 kts | 333° |
| 2026-05-07 03:52 | -3.12618 | -41.43660 | 8424 ft | 286 kts | 333° |
| 2026-05-07 03:52 | -3.10852 | -41.44558 | 7930 ft | 284 kts | 333° |
| 2026-05-07 03:53 | -3.09092 | -41.45453 | 7437 ft | 282 kts | 333° |
| 2026-05-07 03:53 | -3.07347 | -41.46339 | 6949 ft | 281 kts | 333° |
| 2026-05-07 03:53 | -3.05652 | -41.47201 | 6843 ft | 259 kts | 334° |
| 2026-05-07 03:53 | -3.04139 | -41.47972 | 6818 ft | 230 kts | 334° |
| 2026-05-07 03:54 | -3.02779 | -41.48664 | 6682 ft | 211 kts | 334° |
| 2026-05-07 03:54 | -3.01476 | -41.49326 | 6322 ft | 206 kts | 334° |
| 2026-05-07 03:54 | -3.00207 | -41.49971 | 5908 ft | 204 kts | 334° |
| 2026-05-07 03:54 | -2.98941 | -41.50614 | 5487 ft | 203 kts | 334° |
| 2026-05-07 03:55 | -2.97683 | -41.51253 | 5066 ft | 202 kts | 334° |
| 2026-05-07 03:55 | -2.96435 | -41.51886 | 4648 ft | 201 kts | 334° |
| 2026-05-07 03:55 | -2.95189 | -41.52519 | 4231 ft | 200 kts | 334° |
| 2026-05-07 03:55 | -2.93951 | -41.53137 | 3816 ft | 198 kts | 338° |
| 2026-05-07 03:56 | -2.92669 | -41.53554 | 3627 ft | 183 kts | 345° |
| 2026-05-07 03:56 | -2.91489 | -41.53896 | 3316 ft | 174 kts | 345° |
| 2026-05-07 03:56 | -2.90327 | -41.54229 | 2890 ft | 173 kts | 345° |
| 2026-05-07 03:56 | -2.89172 | -41.54561 | 2470 ft | 172 kts | 345° |
| 2026-05-07 03:57 | -2.88026 | -41.54890 | 2164 ft | 170 kts | 345° |
| 2026-05-07 03:57 | -2.86873 | -41.55221 | 2118 ft | 173 kts | 345° |
| 2026-05-07 03:57 | -2.85708 | -41.55556 | 2114 ft | 174 kts | 345° |
| 2026-05-07 03:57 | -2.84695 | -41.56124 | 2065 ft | 160 kts | 309° |
| 2026-05-07 03:58 | -2.84399 | -41.57135 | 1835 ft | 152 kts | 258° |
| 2026-05-07 03:58 | -2.84687 | -41.58112 | 1803 ft | 143 kts | 250° |
| 2026-05-07 03:58 | -2.84999 | -41.59038 | 1769 ft | 141 kts | 250° |
| 2026-05-07 03:58 | -2.85312 | -41.59967 | 1765 ft | 141 kts | 250° |
| 2026-05-07 03:59 | -2.85624 | -41.60892 | 1762 ft | 140 kts | 250° |
| 2026-05-07 03:59 | -2.85935 | -41.61815 | 1764 ft | 141 kts | 250° |
| 2026-05-07 03:59 | -2.86248 | -41.62743 | 1762 ft | 139 kts | 250° |
| 2026-05-07 03:59 | -2.86559 | -41.63664 | 1766 ft | 141 kts | 250° |
| 2026-05-07 04:00 | -2.86849 | -41.64599 | 1644 ft | 140 kts | 252° |
| 2026-05-07 04:00 | -2.87121 | -41.65525 | 1442 ft | 139 kts | 252° |
| 2026-05-07 04:00 | -2.87393 | -41.66454 | 1244 ft | 140 kts | 252° |
| 2026-05-07 04:00 | -2.87666 | -41.67384 | 1047 ft | 140 kts | 252° |
| 2026-05-07 04:01 | -2.87940 | -41.68316 | 847 ft | 140 kts | 252° |
| 2026-05-07 04:01 | -2.88215 | -41.69253 | 648 ft | 141 kts | 252° |
| 2026-05-07 04:01 | -2.88489 | -41.70186 | 449 ft | 140 kts | 252° |
| 2026-05-07 04:01 | -2.88762 | -41.71116 | 249 ft | 139 kts | 252° |
| 2026-05-07 04:02 | -2.89031 | -41.72032 | 49 ft | 134 kts | 252° |
| 2026-05-07 04:02 | -2.89252 | -41.72778 | 17 ft | 69 kts | 253° |
| 2026-05-07 04:02 | -2.89312 | -41.72986 | 18 ft | 18 kts | 253° |
| 2026-05-07 04:02 | -2.89355 | -41.73074 | 19 ft | 11 kts | 208° |
| 2026-05-07 04:03 | -2.89407 | -41.73066 | 20 ft | 5 kts | 159° |
| 2026-05-07 04:03 | -2.89418 | -41.73062 | 20 ft | 0 kts | 159° |
| 2026-05-07 04:04 | -2.89435 | -41.73047 | 20 ft | 6 kts | 135° |
| 2026-05-07 04:04 | -2.89451 | -41.73034 | 20 ft | 2 kts | 155° |
| 2026-05-07 04:04 | -2.89464 | -41.73031 | 20 ft | 2 kts | 165° |
| 2026-05-07 04:05 | -2.89471 | -41.73029 | 20 ft | 0 kts | 165° |